ARC Gloria — 5KMT — position and weather

sailwx.info

Track history (hours):
 
Tides and Currents Weather Stations Pressure Air Temp Water Temp Dewpoint Dewpoint Depression Visibility Wind Speed Wind Dir Waves Ship Positions

ARC Gloria (Colombia)

Three-masted barque. Training ship of the Colombian National Armada.

Ship's website: http://www.armada.mil.co/

Last reported at 2017-Sep-11 20:32 UTC. Time now 2017-Sep-24 06:59 UTC.
Position N 27°49' W 015°18'.
Warning: this ship's position is 12 days out of date.

Length 76 m; draft 4.6 m.

Type: Sailing vessel. MMSI: 730010001.

Date/timePositionNaut miles runAvg speedWind from/ knotsBaromVisibWave heightAir tempDewpointWater temp
2017-Sep-11 20:32N 27°49' W 015°18'1 6.0
2017-Sep-11 20:26N 27°49' W 015°18'2 5.8
2017-Sep-11 20:00N 27°51' W 015°16'3 6.5
2017-Sep-11 19:30N 27°54' W 015°15'4 8.4
2017-Sep-11 19:00N 27°58' W 015°15'510.3
2017-Sep-11 18:30N 28°02' W 015°18'5 9.9
2017-Sep-11 18:00N 28°06' W 015°22'3 6.5
2017-Sep-11 17:30N 28°08' W 015°25'1 1.2
2017-Sep-11 16:49N 28°08' W 015°26'0 0.0
2017-Sep-11 16:19N 28°08' W 015°26'0 0.0
2017-Sep-11 15:49N 28°08' W 015°26'0 0.0
2017-Sep-11 15:22N 28°08' W 015°26'0 0.0
2017-Sep-11 14:52N 28°08' W 015°26'0 0.0
2017-Sep-11 14:22N 28°08' W 015°26'0 0.0
2017-Sep-11 13:52N 28°08' W 015°26'0 0.0
2017-Sep-11 13:22N 28°08' W 015°26'0 0.0
2017-Sep-11 12:49N 28°08' W 015°26'0 0.0
2017-Sep-11 12:25N 28°08' W 015°26'0 0.0
2017-Sep-11 11:49N 28°08' W 015°26'0 0.0
2017-Sep-11 11:25N 28°08' W 015°26'0 0.0
2017-Sep-11 10:55N 28°08' W 015°26'0 0.0
2017-Sep-11 10:25N 28°08' W 015°26'0 0.0
2017-Sep-11 09:55N 28°08' W 015°26'0 0.0
2017-Sep-11 09:28N 28°08' W 015°26'0 0.0
2017-Sep-11 08:58N 28°08' W 015°26'0 0.0
2017-Sep-11 08:28N 28°08' W 015°26'0 0.0
2017-Sep-11 07:58N 28°08' W 015°26'0 0.0
2017-Sep-11 06:58N 28°08' W 015°26'0 0.0
2017-Sep-11 06:31N 28°08' W 015°26'0 0.0
2017-Sep-11 06:01N 28°08' W 015°26'0 0.0
2017-Sep-11 05:31N 28°08' W 015°26'0 0.0
2017-Sep-11 05:01N 28°08' W 015°26'0 0.0
2017-Sep-11 04:31N 28°08' W 015°26'0 0.0
2017-Sep-11 03:49N 28°08' W 015°26'0 0.0
2017-Sep-11 03:31N 28°08' W 015°26'0 0.0
2017-Sep-11 03:01N 28°08' W 015°26'0 0.0
2017-Sep-11 02:31N 28°08' W 015°26'0 0.0
2017-Sep-11 01:49N 28°08' W 015°26'0 0.0
2017-Sep-11 01:31N 28°08' W 015°26'0 0.0
2017-Sep-11 01:01N 28°08' W 015°26'0 0.0
2017-Sep-11 00:31N 28°08' W 015°26'0 0.0
2017-Sep-11 00:01N 28°08' W 015°26'0 0.0
2017-Sep-10 23:22N 28°08' W 015°26'0 0.0
2017-Sep-10 22:52N 28°08' W 015°26'0 0.0
2017-Sep-10 22:19N 28°08' W 015°26'0 0.0
2017-Sep-10 21:55N 28°08' W 015°26'0 0.0
2017-Sep-10 21:25N 28°08' W 015°26'0 0.0
2017-Sep-10 20:55N 28°08' W 015°26'0 0.0
2017-Sep-10 20:25N 28°08' W 015°26'0 0.0
2017-Sep-10 19:55N 28°08' W 015°26'0 0.0
2017-Sep-10 19:25N 28°08' W 015°26'0 0.0
2017-Sep-10 18:55N 28°08' W 015°26'0 0.0
2017-Sep-10 18:28N 28°08' W 015°26'0 0.0
2017-Sep-10 17:55N 28°08' W 015°26'0 0.0
2017-Sep-10 17:28N 28°08' W 015°26'0 0.0
2017-Sep-10 16:58N 28°08' W 015°26'0 0.0
2017-Sep-10 16:28N 28°08' W 015°26'0 0.0
2017-Sep-10 16:01N 28°08' W 015°26'0 0.0
2017-Sep-10 15:31N 28°08' W 015°26'0 0.0
2017-Sep-10 15:01N 28°08' W 015°26'0 0.0
2017-Sep-10 14:01N 28°08' W 015°26'0 0.0
2017-Sep-10 13:31N 28°08' W 015°26'0 0.0
2017-Sep-10 13:01N 28°08' W 015°26'0 0.0
2017-Sep-10 12:31N 28°08' W 015°26'0 0.0
2017-Sep-10 12:01N 28°08' W 015°26'0 0.0
2017-Sep-10 11:30N 28°08' W 015°26'0 0.0
2017-Sep-10 11:00N 28°08' W 015°26'0 0.0
2017-Sep-10 10:30N 28°08' W 015°26'0 0.0
2017-Sep-10 09:49N 28°08' W 015°26'0 0.0
2017-Sep-10 09:21N 28°08' W 015°26'0 0.0
2017-Sep-10 08:51N 28°08' W 015°26'0 0.0
2017-Sep-10 08:22N 28°08' W 015°26'0 0.0
2017-Sep-10 07:55N 28°08' W 015°26'0 0.0
2017-Sep-10 07:25N 28°08' W 015°26'0 0.0
2017-Sep-10 06:54N 28°08' W 015°26'0 0.0
2017-Sep-10 06:24N 28°08' W 015°26'0 0.0
2017-Sep-10 05:55N 28°08' W 015°26'0 0.0
2017-Sep-10 05:24N 28°08' W 015°26'0 0.0
2017-Sep-10 04:57N 28°08' W 015°26'0 0.0
2017-Sep-10 04:27N 28°08' W 015°26'0 0.0
2017-Sep-10 03:54N 28°08' W 015°26'0 0.0
2017-Sep-10 03:27N 28°08' W 015°26'0 0.0
2017-Sep-10 02:57N 28°08' W 015°26'0 0.0
2017-Sep-10 02:27N 28°08' W 015°26'0 0.0
2017-Sep-10 02:00N 28°08' W 015°26'0 0.0
2017-Sep-10 01:30N 28°08' W 015°26'0 0.0
2017-Sep-10 01:00N 28°08' W 015°26'0 0.0
2017-Sep-10 00:30N 28°08' W 015°26'0 0.0
2017-Sep-10 00:00N 28°08' W 015°26'0 0.0
2017-Sep-09 23:30N 28°08' W 015°26'0 0.0
2017-Sep-09 23:00N 28°08' W 015°26'0 0.0
2017-Sep-09 22:30N 28°08' W 015°26'0 0.0
2017-Sep-09 22:00N 28°08' W 015°26'0 0.0
2017-Sep-09 21:30N 28°08' W 015°26'0 0.0
2017-Sep-09 21:00N 28°08' W 015°26'0 0.0
2017-Sep-09 20:30N 28°08' W 015°26'0 0.0
2017-Sep-09 20:00N 28°08' W 015°26'0 0.0
2017-Sep-09 19:30N 28°08' W 015°26'0 0.0
2017-Sep-09 18:51N 28°08' W 015°26'0 0.0
2017-Sep-09 18:21N 28°08' W 015°26'0 0.0
2017-Sep-09 17:51N 28°08' W 015°26'0 0.0
2017-Sep-09 17:24N 28°08' W 015°26'0 0.0
2017-Sep-09 16:54N 28°08' W 015°26'0 0.0
2017-Sep-09 16:24N 28°08' W 015°26'0 0.0
2017-Sep-09 15:54N 28°08' W 015°26'0 0.0
2017-Sep-09 15:24N 28°08' W 015°26'0 0.0
2017-Sep-09 14:54N 28°08' W 015°26'0 0.0
2017-Sep-09 14:27N 28°08' W 015°26'0 0.0
2017-Sep-09 13:57N 28°08' W 015°26'0 0.0
2017-Sep-09 13:27N 28°08' W 015°26'0 0.0
2017-Sep-09 12:57N 28°08' W 015°26'0 0.0
2017-Sep-09 12:27N 28°08' W 015°26'0 0.0
2017-Sep-09 11:57N 28°08' W 015°26'0 0.0
2017-Sep-09 11:30N 28°08' W 015°26'0 0.0
2017-Sep-09 11:00N 28°08' W 015°26'0 0.0
2017-Sep-09 10:30N 28°08' W 015°26'0 0.0
2017-Sep-09 10:00N 28°08' W 015°26'0 0.0
2017-Sep-09 09:30N 28°08' W 015°26'0 0.0
2017-Sep-09 09:00N 28°08' W 015°26'0 0.0
2017-Sep-09 08:30N 28°08' W 015°26'0 0.1
2017-Sep-09 08:00N 28°09' W 015°25'1 2.1
2017-Sep-09 07:30N 28°08' W 015°25'0 0.2
2017-Sep-09 07:00N 28°07' W 015°25'0 0.0
2017-Sep-09 06:30N 28°07' W 015°25'0 0.0
2017-Sep-09 06:00N 28°07' W 015°25'0 0.0
2017-Sep-09 05:31N 28°07' W 015°25'0 0.0
2017-Sep-09 05:00N 28°07' W 015°25'0 0.0
2017-Sep-09 04:30N 28°07' W 015°25'0 0.0
2017-Sep-09 04:00N 28°07' W 015°25'0 0.0
2017-Sep-09 03:31N 28°07' W 015°25'0 0.0
2017-Sep-09 03:00N 28°07' W 015°25'0 0.0
2017-Sep-09 02:30N 28°07' W 015°25'0 0.0
2017-Sep-09 01:59N 28°07' W 015°25'0 0.0
2017-Sep-09 01:31N 28°07' W 015°25'0 0.0
2017-Sep-09 01:00N 28°07' W 015°25'0 0.0
2017-Sep-09 00:31N 28°07' W 015°25'0 0.0
2017-Sep-09 00:00N 28°07' W 015°25'0 0.0
2017-Sep-08 23:30N 28°07' W 015°25'0 0.0
2017-Sep-08 23:00N 28°07' W 015°25'0 0.0
2017-Sep-08 22:30N 28°07' W 015°25'0 0.0
2017-Sep-08 22:00N 28°07' W 015°25'0 0.0
2017-Sep-08 21:30N 28°07' W 015°25'0 0.0
2017-Sep-08 21:00N 28°07' W 015°25'0 0.0
2017-Sep-08 20:30N 28°07' W 015°25'0 0.0
2017-Sep-08 20:00N 28°07' W 015°25'0 0.0
2017-Sep-08 19:30N 28°07' W 015°25'0 0.0
2017-Sep-08 19:00N 28°07' W 015°25'0 0.0
2017-Sep-08 18:30N 28°07' W 015°25'0 0.0
2017-Sep-08 18:00N 28°07' W 015°25'0 0.0
2017-Sep-08 17:30N 28°07' W 015°25'0 0.0
2017-Sep-08 17:00N 28°07' W 015°25'0 0.0
2017-Sep-08 16:30N 28°07' W 015°25'0 0.0
2017-Sep-08 16:00N 28°07' W 015°25'0 0.0
2017-Sep-08 15:30N 28°07' W 015°25'0 0.0
2017-Sep-08 15:00N 28°07' W 015°25'0 0.0
2017-Sep-08 14:30N 28°07' W 015°25'0 0.0
2017-Sep-08 14:01N 28°07' W 015°25'0 0.0
2017-Sep-08 13:31N 28°07' W 015°25'0 0.0
2017-Sep-08 13:00N 28°07' W 015°25'0 0.0
2017-Sep-08 12:31N 28°07' W 015°25'0 0.0
2017-Sep-08 12:00N 28°07' W 015°25'0 0.0
2017-Sep-08 11:31N 28°07' W 015°25'0 0.0
2017-Sep-08 11:01N 28°07' W 015°25'0 0.0
2017-Sep-08 10:30N 28°07' W 015°25'0 0.0
2017-Sep-08 10:00N 28°07' W 015°25'0 0.0
2017-Sep-08 09:30N 28°07' W 015°25'0 0.0
2017-Sep-08 09:00N 28°07' W 015°25'0 0.0
2017-Sep-08 08:30N 28°07' W 015°25'0 0.0
2017-Sep-08 08:00N 28°07' W 015°25'0 0.0
2017-Sep-08 07:30N 28°07' W 015°25'0 0.0
2017-Sep-08 07:00N 28°07' W 015°25'0 0.0
2017-Sep-08 06:30N 28°07' W 015°25'0 0.0
2017-Sep-08 06:00N 28°07' W 015°25'0 0.0
2017-Sep-08 05:30N 28°07' W 015°25'0 0.0
2017-Sep-08 05:00N 28°07' W 015°25'0 0.0
2017-Sep-08 04:30N 28°07' W 015°25'0 0.0
2017-Sep-08 04:00N 28°07' W 015°25'0 0.0
2017-Sep-08 03:30N 28°07' W 015°25'0 0.0
2017-Sep-08 03:00N 28°07' W 015°25'0 0.0
2017-Sep-08 02:30N 28°07' W 015°25'0 0.0
2017-Sep-08 02:00N 28°07' W 015°25'0 0.0
2017-Sep-08 01:30N 28°07' W 015°25'0 0.0
2017-Sep-08 01:00N 28°07' W 015°25'0 0.0
2017-Sep-08 00:30N 28°07' W 015°25'0 0.0
2017-Sep-08 00:01N 28°07' W 015°25'0 0.0
2017-Sep-07 23:30N 28°07' W 015°25'0 0.0
2017-Sep-07 23:01N 28°07' W 015°25'0 0.0
2017-Sep-07 22:30N 28°07' W 015°25'0 0.0
2017-Sep-07 22:01N 28°07' W 015°25'0 0.0
2017-Sep-07 21:31N 28°07' W 015°25'0 0.0
2017-Sep-07 21:00N 28°07' W 015°25'0 0.0
2017-Sep-07 20:30N 28°07' W 015°25'0 0.0
2017-Sep-07 20:00N 28°07' W 015°25'0 0.0
2017-Sep-07 19:30N 28°07' W 015°25'0 0.0
2017-Sep-07 19:01N 28°07' W 015°25'0 0.0
2017-Sep-07 18:30N 28°07' W 015°25'0 0.0
2017-Sep-07 18:00N 28°07' W 015°25'0 0.0
2017-Sep-07 17:30N 28°07' W 015°25'0 0.0
2017-Sep-07 17:00N 28°07' W 015°25'0 0.0
2017-Sep-07 16:30N 28°07' W 015°25'0 0.0
2017-Sep-07 16:00N 28°07' W 015°25'0 0.0
2017-Sep-07 15:30N 28°07' W 015°25'0 0.0
2017-Sep-07 15:00N 28°07' W 015°25'0 0.0
2017-Sep-07 14:30N 28°07' W 015°25'0 0.1
2017-Sep-07 14:00N 28°07' W 015°25'0 0.0
2017-Sep-07 13:30N 28°07' W 015°25'0 0.0
2017-Sep-07 13:00N 28°07' W 015°25'0 0.0
2017-Sep-07 12:30N 28°07' W 015°25'0 0.0
2017-Sep-07 12:00N 28°07' W 015°25'0 0.0
2017-Sep-07 11:31N 28°07' W 015°25'0 0.0
2017-Sep-07 11:00N 28°07' W 015°25'0 0.0
2017-Sep-07 10:30N 28°07' W 015°25'0 0.0
2017-Sep-07 10:01N 28°07' W 015°25'0 0.0
2017-Sep-07 09:31N 28°07' W 015°25'0 0.0
2017-Sep-07 09:00N 28°07' W 015°25'0 0.1
2017-Sep-07 08:30N 28°07' W 015°25'1 1.9
2017-Sep-07 08:00N 28°07' W 015°24'3 5.8
2017-Sep-07 07:31N 28°09' W 015°22'5 9.5
2017-Sep-07 07:00N 28°13' W 015°19'5 9.6
2017-Sep-07 06:31N 28°17' W 015°16'5 9.1
2017-Sep-07 06:00N 28°21' W 015°13'510.0
2017-Sep-07 05:30N 28°25' W 015°10'510.2
2017-Sep-07 05:01N 28°29' W 015°07'610.3
2017-Sep-07 04:27N 28°34' W 015°03'510.6
2017-Sep-07 03:56N 28°38' W 015°00'  
2017-Sep-03 18:56N 37°01' W 010°41'2 5.7
2017-Sep-03 18:31N 37°04' W 010°40'3 5.8
2017-Sep-03 17:56N 37°07' W 010°38'9 6.1
2017-Sep-03 16:26N 37°16' W 010°35'3 6.1
2017-Sep-03 16:00N 37°18' W 010°34'3 6.0
2017-Sep-03 15:29N 37°21' W 010°33'3 5.8
2017-Sep-03 14:54N 37°25' W 010°32'5 5.6
2017-Sep-03 14:00N 37°29' W 010°30'3 5.2
2017-Sep-03 13:31N 37°32' W 010°30'3 5.2
2017-Sep-03 13:00N 37°34' W 010°29'2 5.0
2017-Sep-03 12:30N 37°37' W 010°29'2 4.7
2017-Sep-03 12:00N 37°39' W 010°28'2 4.7
2017-Sep-03 11:30N 37°42' W 010°28'2 4.4
2017-Sep-03 11:01N 37°44' W 010°28'2 4.1
2017-Sep-03 10:29N 37°46' W 010°27'2 4.3
2017-Sep-03 10:00N 37°48' W 010°27'2 4.5
2017-Sep-03 09:30N 37°50' W 010°26'2 4.9
2017-Sep-03 09:00N 37°52' W 010°26'2 4.7
2017-Sep-03 08:30N 37°55' W 010°26'3 5.3
2017-Sep-03 08:00N 37°57' W 010°26'3 5.6
2017-Sep-03 07:30N 38°00' W 010°26'3 5.6
2017-Sep-03 07:00N 38°03' W 010°27'3 5.8
2017-Sep-03 06:31N 38°06' W 010°27'3 5.9
2017-Sep-03 06:00N 38°09' W 010°28'3 5.7
2017-Sep-03 05:30N 38°12' W 010°29'3 5.6
2017-Sep-03 05:00N 38°14' W 010°29'3 5.6
2017-Sep-03 04:31N 38°17' W 010°30'3 5.3
2017-Sep-03 04:01N 38°20' W 010°30'3 5.1
2017-Sep-03 03:31N 38°22' W 010°31'3 5.2
2017-Sep-03 03:01N 38°25' W 010°31'2 4.8
2017-Sep-03 02:30N 38°27' W 010°31'2 4.7
2017-Sep-03 02:00N 38°30' W 010°31'3 4.7
2017-Sep-03 01:29N 38°32' W 010°31'3 5.3
2017-Sep-03 00:59N 38°35' W 010°32'4 5.5
2017-Sep-03 00:19N 38°38' W 010°32'2 5.0
2017-Sep-02 23:57N 38°40' W 010°32'2 4.8
2017-Sep-02 23:30N 38°42' W 010°32'2 4.8
2017-Sep-02 23:00N 38°45' W 010°32'2 5.0
2017-Sep-02 22:31N 38°47' W 010°31'2 4.6
2017-Sep-02 22:00N 38°50' W 010°31'2 4.4
2017-Sep-02 21:30N 38°52' W 010°31'2 4.8
2017-Sep-02 21:00N 38°54' W 010°31'3 5.2
2017-Sep-02 20:30N 38°57' W 010°31'3 5.1
2017-Sep-02 20:00N 38°59' W 010°30'3 5.7
2017-Sep-02 19:30N 39°02' W 010°30'3 5.6
2017-Sep-02 19:01N 39°05' W 010°30'3 5.2
2017-Sep-02 18:30N 39°07' W 010°29'3 5.6
2017-Sep-02 18:01N 39°10' W 010°28'3 6.3
2017-Sep-02 17:31N 39°13' W 010°27'3 5.8
2017-Sep-02 17:00N 39°16' W 010°26'3 5.7
2017-Sep-02 16:30N 39°19' W 010°25'3 5.2
2017-Sep-02 16:00N 39°21' W 010°25'3 5.2
2017-Sep-02 15:30N 39°24' W 010°24'2 4.9
2017-Sep-02 15:00N 39°26' W 010°24'2 4.2
2017-Sep-02 14:30N 39°28' W 010°23'2 4.6
2017-Sep-02 14:00N 39°31' W 010°23'2 4.2
2017-Sep-02 13:30N 39°33' W 010°23'2 4.0
2017-Sep-02 13:00N 39°35' W 010°22'2 4.0
2017-Sep-02 12:30N 39°37' W 010°22'3 6.7
2017-Sep-02 12:00N 39°40' W 010°22'4 7.1
2017-Sep-02 11:30N 39°44' W 010°21'4 7.1
2017-Sep-02 11:00N 39°47' W 010°21'4 6.9
2017-Sep-02 10:30N 39°51' W 010°21'3 6.8
2017-Sep-02 10:00N 39°54' W 010°20'4 6.7
2017-Sep-02 09:29N 39°57' W 010°19'5 6.8
2017-Sep-02 08:44N 40°02' W 010°16'2 6.8
2017-Sep-02 08:23N 40°04' W 010°14'3 7.0
2017-Sep-02 08:00N 40°06' W 010°12'3 7.0
2017-Sep-02 07:30N 40°09' W 010°09'3 6.8
2017-Sep-02 07:00N 40°11' W 010°06'3 6.9
2017-Sep-02 06:30N 40°14' W 010°03'  
Track history (hours):
 
Tides and Currents Weather Stations Pressure Air Temp Water Temp Dewpoint Dewpoint Depression Visibility Wind Speed Wind Dir Waves Ship Positions

ARC Gloria (Colombia)

Three-masted barque. Training ship of the Colombian National Armada.

Ship's website: http://www.armada.mil.co/

Last reported at 2017-Sep-11 20:32 UTC. Time now 2017-Sep-24 06:59 UTC.
Position N 27°49' W 015°18'.
Warning: this ship's position is 12 days out of date.

Length 76 m; draft 4.6 m.

Type: Sailing vessel. MMSI: 730010001.

Date/timePositionNaut miles runAvg speedWind from/ knotsBaromVisibWave heightAir tempDewpointWater temp
2017-Sep-11 20:32N 27°49' W 015°18'1 6.0
2017-Sep-11 20:26N 27°49' W 015°18'2 5.8
2017-Sep-11 20:00N 27°51' W 015°16'3 6.5
2017-Sep-11 19:30N 27°54' W 015°15'4 8.4
2017-Sep-11 19:00N 27°58' W 015°15'510.3
2017-Sep-11 18:30N 28°02' W 015°18'5 9.9
2017-Sep-11 18:00N 28°06' W 015°22'3 6.5
2017-Sep-11 17:30N 28°08' W 015°25'1 1.2
2017-Sep-11 16:49N 28°08' W 015°26'0 0.0
2017-Sep-11 16:19N 28°08' W 015°26'0 0.0
2017-Sep-11 15:49N 28°08' W 015°26'0 0.0
2017-Sep-11 15:22N 28°08' W 015°26'0 0.0
2017-Sep-11 14:52N 28°08' W 015°26'0 0.0
2017-Sep-11 14:22N 28°08' W 015°26'0 0.0
2017-Sep-11 13:52N 28°08' W 015°26'0 0.0
2017-Sep-11 13:22N 28°08' W 015°26'0 0.0
2017-Sep-11 12:49N 28°08' W 015°26'0 0.0
2017-Sep-11 12:25N 28°08' W 015°26'0 0.0
2017-Sep-11 11:49N 28°08' W 015°26'0 0.0
2017-Sep-11 11:25N 28°08' W 015°26'0 0.0
2017-Sep-11 10:55N 28°08' W 015°26'0 0.0
2017-Sep-11 10:25N 28°08' W 015°26'0 0.0
2017-Sep-11 09:55N 28°08' W 015°26'0 0.0
2017-Sep-11 09:28N 28°08' W 015°26'0 0.0
2017-Sep-11 08:58N 28°08' W 015°26'0 0.0
2017-Sep-11 08:28N 28°08' W 015°26'0 0.0
2017-Sep-11 07:58N 28°08' W 015°26'0 0.0
2017-Sep-11 06:58N 28°08' W 015°26'0 0.0
2017-Sep-11 06:31N 28°08' W 015°26'0 0.0
2017-Sep-11 06:01N 28°08' W 015°26'0 0.0
2017-Sep-11 05:31N 28°08' W 015°26'0 0.0
2017-Sep-11 05:01N 28°08' W 015°26'0 0.0
2017-Sep-11 04:31N 28°08' W 015°26'0 0.0
2017-Sep-11 03:49N 28°08' W 015°26'0 0.0
2017-Sep-11 03:31N 28°08' W 015°26'0 0.0
2017-Sep-11 03:01N 28°08' W 015°26'0 0.0
2017-Sep-11 02:31N 28°08' W 015°26'0 0.0
2017-Sep-11 01:49N 28°08' W 015°26'0 0.0
2017-Sep-11 01:31N 28°08' W 015°26'0 0.0
2017-Sep-11 01:01N 28°08' W 015°26'0 0.0
2017-Sep-11 00:31N 28°08' W 015°26'0 0.0
2017-Sep-11 00:01N 28°08' W 015°26'0 0.0
2017-Sep-10 23:22N 28°08' W 015°26'0 0.0
2017-Sep-10 22:52N 28°08' W 015°26'0 0.0
2017-Sep-10 22:19N 28°08' W 015°26'0 0.0
2017-Sep-10 21:55N 28°08' W 015°26'0 0.0
2017-Sep-10 21:25N 28°08' W 015°26'0 0.0
2017-Sep-10 20:55N 28°08' W 015°26'0 0.0
2017-Sep-10 20:25N 28°08' W 015°26'0 0.0
2017-Sep-10 19:55N 28°08' W 015°26'0 0.0
2017-Sep-10 19:25N 28°08' W 015°26'0 0.0
2017-Sep-10 18:55N 28°08' W 015°26'0 0.0
2017-Sep-10 18:28N 28°08' W 015°26'0 0.0
2017-Sep-10 17:55N 28°08' W 015°26'0 0.0
2017-Sep-10 17:28N 28°08' W 015°26'0 0.0
2017-Sep-10 16:58N 28°08' W 015°26'0 0.0
2017-Sep-10 16:28N 28°08' W 015°26'0 0.0
2017-Sep-10 16:01N 28°08' W 015°26'0 0.0
2017-Sep-10 15:31N 28°08' W 015°26'0 0.0
2017-Sep-10 15:01N 28°08' W 015°26'0 0.0
2017-Sep-10 14:01N 28°08' W 015°26'0 0.0
2017-Sep-10 13:31N 28°08' W 015°26'0 0.0
2017-Sep-10 13:01N 28°08' W 015°26'0 0.0
2017-Sep-10 12:31N 28°08' W 015°26'0 0.0
2017-Sep-10 12:01N 28°08' W 015°26'0 0.0
2017-Sep-10 11:30N 28°08' W 015°26'0 0.0
2017-Sep-10 11:00N 28°08' W 015°26'0 0.0
2017-Sep-10 10:30N 28°08' W 015°26'0 0.0
2017-Sep-10 09:49N 28°08' W 015°26'0 0.0
2017-Sep-10 09:21N 28°08' W 015°26'0 0.0
2017-Sep-10 08:51N 28°08' W 015°26'0 0.0
2017-Sep-10 08:22N 28°08' W 015°26'0 0.0
2017-Sep-10 07:55N 28°08' W 015°26'0 0.0
2017-Sep-10 07:25N 28°08' W 015°26'0 0.0
2017-Sep-10 06:54N 28°08' W 015°26'0 0.0
2017-Sep-10 06:24N 28°08' W 015°26'0 0.0
2017-Sep-10 05:55N 28°08' W 015°26'0 0.0
2017-Sep-10 05:24N 28°08' W 015°26'0 0.0
2017-Sep-10 04:57N 28°08' W 015°26'0 0.0
2017-Sep-10 04:27N 28°08' W 015°26'0 0.0
2017-Sep-10 03:54N 28°08' W 015°26'0 0.0
2017-Sep-10 03:27N 28°08' W 015°26'0 0.0
2017-Sep-10 02:57N 28°08' W 015°26'0 0.0
2017-Sep-10 02:27N 28°08' W 015°26'0 0.0
2017-Sep-10 02:00N 28°08' W 015°26'0 0.0
2017-Sep-10 01:30N 28°08' W 015°26'0 0.0
2017-Sep-10 01:00N 28°08' W 015°26'0 0.0
2017-Sep-10 00:30N 28°08' W 015°26'0 0.0
2017-Sep-10 00:00N 28°08' W 015°26'0 0.0
2017-Sep-09 23:30N 28°08' W 015°26'0 0.0
2017-Sep-09 23:00N 28°08' W 015°26'0 0.0
2017-Sep-09 22:30N 28°08' W 015°26'0 0.0
2017-Sep-09 22:00N 28°08' W 015°26'0 0.0
2017-Sep-09 21:30N 28°08' W 015°26'0 0.0
2017-Sep-09 21:00N 28°08' W 015°26'0 0.0
2017-Sep-09 20:30N 28°08' W 015°26'0 0.0
2017-Sep-09 20:00N 28°08' W 015°26'0 0.0
2017-Sep-09 19:30N 28°08' W 015°26'0 0.0
2017-Sep-09 18:51N 28°08' W 015°26'0 0.0
2017-Sep-09 18:21N 28°08' W 015°26'0 0.0
2017-Sep-09 17:51N 28°08' W 015°26'0 0.0
2017-Sep-09 17:24N 28°08' W 015°26'0 0.0
2017-Sep-09 16:54N 28°08' W 015°26'0 0.0
2017-Sep-09 16:24N 28°08' W 015°26'0 0.0
2017-Sep-09 15:54N 28°08' W 015°26'0 0.0
2017-Sep-09 15:24N 28°08' W 015°26'0 0.0
2017-Sep-09 14:54N 28°08' W 015°26'0 0.0
2017-Sep-09 14:27N 28°08' W 015°26'0 0.0
2017-Sep-09 13:57N 28°08' W 015°26'0 0.0
2017-Sep-09 13:27N 28°08' W 015°26'0 0.0
2017-Sep-09 12:57N 28°08' W 015°26'0 0.0
2017-Sep-09 12:27N 28°08' W 015°26'0 0.0
2017-Sep-09 11:57N 28°08' W 015°26'0 0.0
2017-Sep-09 11:30N 28°08' W 015°26'0 0.0
2017-Sep-09 11:00N 28°08' W 015°26'0 0.0
2017-Sep-09 10:30N 28°08' W 015°26'0 0.0
2017-Sep-09 10:00N 28°08' W 015°26'0 0.0
2017-Sep-09 09:30N 28°08' W 015°26'0 0.0
2017-Sep-09 09:00N 28°08' W 015°26'0 0.0
2017-Sep-09 08:30N 28°08' W 015°26'0 0.1
2017-Sep-09 08:00N 28°09' W 015°25'1 2.1
2017-Sep-09 07:30N 28°08' W 015°25'0 0.2
2017-Sep-09 07:00N 28°07' W 015°25'0 0.0
2017-Sep-09 06:30N 28°07' W 015°25'0 0.0
2017-Sep-09 06:00N 28°07' W 015°25'0 0.0
2017-Sep-09 05:31N 28°07' W 015°25'0 0.0
2017-Sep-09 05:00N 28°07' W 015°25'0 0.0
2017-Sep-09 04:30N 28°07' W 015°25'0 0.0
2017-Sep-09 04:00N 28°07' W 015°25'0 0.0
2017-Sep-09 03:31N 28°07' W 015°25'0 0.0
2017-Sep-09 03:00N 28°07' W 015°25'0 0.0
2017-Sep-09 02:30N 28°07' W 015°25'0 0.0
2017-Sep-09 01:59N 28°07' W 015°25'0 0.0
2017-Sep-09 01:31N 28°07' W 015°25'0 0.0
2017-Sep-09 01:00N 28°07' W 015°25'0 0.0
2017-Sep-09 00:31N 28°07' W 015°25'0 0.0
2017-Sep-09 00:00N 28°07' W 015°25'0 0.0
2017-Sep-08 23:30N 28°07' W 015°25'0 0.0
2017-Sep-08 23:00N 28°07' W 015°25'0 0.0
2017-Sep-08 22:30N 28°07' W 015°25'0 0.0
2017-Sep-08 22:00N 28°07' W 015°25'0 0.0
2017-Sep-08 21:30N 28°07' W 015°25'0 0.0
2017-Sep-08 21:00N 28°07' W 015°25'0 0.0
2017-Sep-08 20:30N 28°07' W 015°25'0 0.0
2017-Sep-08 20:00N 28°07' W 015°25'0 0.0
2017-Sep-08 19:30N 28°07' W 015°25'0 0.0
2017-Sep-08 19:00N 28°07' W 015°25'0 0.0
2017-Sep-08 18:30N 28°07' W 015°25'0 0.0
2017-Sep-08 18:00N 28°07' W 015°25'0 0.0
2017-Sep-08 17:30N 28°07' W 015°25'0 0.0
2017-Sep-08 17:00N 28°07' W 015°25'0 0.0
2017-Sep-08 16:30N 28°07' W 015°25'0 0.0
2017-Sep-08 16:00N 28°07' W 015°25'0 0.0
2017-Sep-08 15:30N 28°07' W 015°25'0 0.0
2017-Sep-08 15:00N 28°07' W 015°25'0 0.0
2017-Sep-08 14:30N 28°07' W 015°25'0 0.0
2017-Sep-08 14:01N 28°07' W 015°25'0 0.0
2017-Sep-08 13:31N 28°07' W 015°25'0 0.0
2017-Sep-08 13:00N 28°07' W 015°25'0 0.0
2017-Sep-08 12:31N 28°07' W 015°25'0 0.0
2017-Sep-08 12:00N 28°07' W 015°25'0 0.0
2017-Sep-08 11:31N 28°07' W 015°25'0 0.0
2017-Sep-08 11:01N 28°07' W 015°25'0 0.0
2017-Sep-08 10:30N 28°07' W 015°25'0 0.0
2017-Sep-08 10:00N 28°07' W 015°25'0 0.0
2017-Sep-08 09:30N 28°07' W 015°25'0 0.0
2017-Sep-08 09:00N 28°07' W 015°25'0 0.0
2017-Sep-08 08:30N 28°07' W 015°25'0 0.0
2017-Sep-08 08:00N 28°07' W 015°25'0 0.0
2017-Sep-08 07:30N 28°07' W 015°25'0 0.0
2017-Sep-08 07:00N 28°07' W 015°25'0 0.0
2017-Sep-08 06:30N 28°07' W 015°25'0 0.0
2017-Sep-08 06:00N 28°07' W 015°25'0 0.0
2017-Sep-08 05:30N 28°07' W 015°25'0 0.0
2017-Sep-08 05:00N 28°07' W 015°25'0 0.0
2017-Sep-08 04:30N 28°07' W 015°25'0 0.0
2017-Sep-08 04:00N 28°07' W 015°25'0 0.0
2017-Sep-08 03:30N 28°07' W 015°25'0 0.0
2017-Sep-08 03:00N 28°07' W 015°25'0 0.0
2017-Sep-08 02:30N 28°07' W 015°25'0 0.0
2017-Sep-08 02:00N 28°07' W 015°25'0 0.0
2017-Sep-08 01:30N 28°07' W 015°25'0 0.0
2017-Sep-08 01:00N 28°07' W 015°25'0 0.0
2017-Sep-08 00:30N 28°07' W 015°25'0 0.0
2017-Sep-08 00:01N 28°07' W 015°25'0 0.0
2017-Sep-07 23:30N 28°07' W 015°25'0 0.0
2017-Sep-07 23:01N 28°07' W 015°25'0 0.0
2017-Sep-07 22:30N 28°07' W 015°25'0 0.0
2017-Sep-07 22:01N 28°07' W 015°25'0 0.0
2017-Sep-07 21:31N 28°07' W 015°25'0 0.0
2017-Sep-07 21:00N 28°07' W 015°25'0 0.0
2017-Sep-07 20:30N 28°07' W 015°25'0 0.0
2017-Sep-07 20:00N 28°07' W 015°25'0 0.0
2017-Sep-07 19:30N 28°07' W 015°25'0 0.0
2017-Sep-07 19:01N 28°07' W 015°25'0 0.0
2017-Sep-07 18:30N 28°07' W 015°25'0 0.0
2017-Sep-07 18:00N 28°07' W 015°25'0 0.0
2017-Sep-07 17:30N 28°07' W 015°25'0 0.0
2017-Sep-07 17:00N 28°07' W 015°25'0 0.0
2017-Sep-07 16:30N 28°07' W 015°25'0 0.0
2017-Sep-07 16:00N 28°07' W 015°25'0 0.0
2017-Sep-07 15:30N 28°07' W 015°25'0 0.0
2017-Sep-07 15:00N 28°07' W 015°25'0 0.0
2017-Sep-07 14:30N 28°07' W 015°25'0 0.1
2017-Sep-07 14:00N 28°07' W 015°25'0 0.0
2017-Sep-07 13:30N 28°07' W 015°25'0 0.0
2017-Sep-07 13:00N 28°07' W 015°25'0 0.0
2017-Sep-07 12:30N 28°07' W 015°25'0 0.0
2017-Sep-07 12:00N 28°07' W 015°25'0 0.0
2017-Sep-07 11:31N 28°07' W 015°25'0 0.0
2017-Sep-07 11:00N 28°07' W 015°25'0 0.0
2017-Sep-07 10:30N 28°07' W 015°25'0 0.0
2017-Sep-07 10:01N 28°07' W 015°25'0 0.0
2017-Sep-07 09:31N 28°07' W 015°25'0 0.0
2017-Sep-07 09:00N 28°07' W 015°25'0 0.1
2017-Sep-07 08:30N 28°07' W 015°25'1 1.9
2017-Sep-07 08:00N 28°07' W 015°24'3 5.8
2017-Sep-07 07:31N 28°09' W 015°22'5 9.5
2017-Sep-07 07:00N 28°13' W 015°19'5 9.6
2017-Sep-07 06:31N 28°17' W 015°16'5 9.1
2017-Sep-07 06:00N 28°21' W 015°13'510.0
2017-Sep-07 05:30N 28°25' W 015°10'510.2
2017-Sep-07 05:01N 28°29' W 015°07'610.3
2017-Sep-07 04:27N 28°34' W 015°03'510.6
2017-Sep-07 03:56N 28°38' W 015°00'  
2017-Sep-03 18:56N 37°01' W 010°41'2 5.7
2017-Sep-03 18:31N 37°04' W 010°40'3 5.8
2017-Sep-03 17:56N 37°07' W 010°38'9 6.1
2017-Sep-03 16:26N 37°16' W 010°35'3 6.1
2017-Sep-03 16:00N 37°18' W 010°34'3 6.0
2017-Sep-03 15:29N 37°21' W 010°33'3 5.8
2017-Sep-03 14:54N 37°25' W 010°32'5 5.6
2017-Sep-03 14:00N 37°29' W 010°30'3 5.2
2017-Sep-03 13:31N 37°32' W 010°30'3 5.2
2017-Sep-03 13:00N 37°34' W 010°29'2 5.0
2017-Sep-03 12:30N 37°37' W 010°29'2 4.7
2017-Sep-03 12:00N 37°39' W 010°28'2 4.7
2017-Sep-03 11:30N 37°42' W 010°28'2 4.4
2017-Sep-03 11:01N 37°44' W 010°28'2 4.1
2017-Sep-03 10:29N 37°46' W 010°27'2 4.3
2017-Sep-03 10:00N 37°48' W 010°27'2 4.5
2017-Sep-03 09:30N 37°50' W 010°26'2 4.9
2017-Sep-03 09:00N 37°52' W 010°26'2 4.7
2017-Sep-03 08:30N 37°55' W 010°26'3 5.3
2017-Sep-03 08:00N 37°57' W 010°26'3 5.6
2017-Sep-03 07:30N 38°00' W 010°26'3 5.6
2017-Sep-03 07:00N 38°03' W 010°27'3 5.8
2017-Sep-03 06:31N 38°06' W 010°27'3 5.9
2017-Sep-03 06:00N 38°09' W 010°28'3 5.7
2017-Sep-03 05:30N 38°12' W 010°29'3 5.6
2017-Sep-03 05:00N 38°14' W 010°29'3 5.6
2017-Sep-03 04:31N 38°17' W 010°30'3 5.3
2017-Sep-03 04:01N 38°20' W 010°30'3 5.1
2017-Sep-03 03:31N 38°22' W 010°31'3 5.2
2017-Sep-03 03:01N 38°25' W 010°31'2 4.8
2017-Sep-03 02:30N 38°27' W 010°31'2 4.7
2017-Sep-03 02:00N 38°30' W 010°31'3 4.7
2017-Sep-03 01:29N 38°32' W 010°31'3 5.3
2017-Sep-03 00:59N 38°35' W 010°32'4 5.5
2017-Sep-03 00:19N 38°38' W 010°32'2 5.0
2017-Sep-02 23:57N 38°40' W 010°32'2 4.8
2017-Sep-02 23:30N 38°42' W 010°32'2 4.8
2017-Sep-02 23:00N 38°45' W 010°32'2 5.0
2017-Sep-02 22:31N 38°47' W 010°31'2 4.6
2017-Sep-02 22:00N 38°50' W 010°31'2 4.4
2017-Sep-02 21:30N 38°52' W 010°31'2 4.8
2017-Sep-02 21:00N 38°54' W 010°31'3 5.2
2017-Sep-02 20:30N 38°57' W 010°31'3 5.1
2017-Sep-02 20:00N 38°59' W 010°30'3 5.7
2017-Sep-02 19:30N 39°02' W 010°30'3 5.6
2017-Sep-02 19:01N 39°05' W 010°30'3 5.2
2017-Sep-02 18:30N 39°07' W 010°29'3 5.6
2017-Sep-02 18:01N 39°10' W 010°28'3 6.3
2017-Sep-02 17:31N 39°13' W 010°27'3 5.8
2017-Sep-02 17:00N 39°16' W 010°26'3 5.7
2017-Sep-02 16:30N 39°19' W 010°25'3 5.2
2017-Sep-02 16:00N 39°21' W 010°25'3 5.2
2017-Sep-02 15:30N 39°24' W 010°24'2 4.9
2017-Sep-02 15:00N 39°26' W 010°24'2 4.2
2017-Sep-02 14:30N 39°28' W 010°23'2 4.6
2017-Sep-02 14:00N 39°31' W 010°23'2 4.2
2017-Sep-02 13:30N 39°33' W 010°23'2 4.0
2017-Sep-02 13:00N 39°35' W 010°22'2 4.0
2017-Sep-02 12:30N 39°37' W 010°22'3 6.7
2017-Sep-02 12:00N 39°40' W 010°22'4 7.1
2017-Sep-02 11:30N 39°44' W 010°21'4 7.1
2017-Sep-02 11:00N 39°47' W 010°21'4 6.9
2017-Sep-02 10:30N 39°51' W 010°21'3 6.8
2017-Sep-02 10:00N 39°54' W 010°20'4 6.7
2017-Sep-02 09:29N 39°57' W 010°19'5 6.8
2017-Sep-02 08:44N 40°02' W 010°16'2 6.8
2017-Sep-02 08:23N 40°04' W 010°14'3 7.0
2017-Sep-02 08:00N 40°06' W 010°12'3 7.0
2017-Sep-02 07:30N 40°09' W 010°09'3 6.8
2017-Sep-02 07:00N 40°11' W 010°06'3 6.9
2017-Sep-02 06:30N 40°14' W 010°03'  

Dump ship's entire track history